< < Back
Terminal Aerodrome Forecast


Current Version              Previous Versions:   1  2  3  4  5  6  7  8  9  

Terminal Aerodrome Forecast

488
FTUS42 KILM 230500
TAFILM
TAF
KILM 230539Z 2306/2406 27006KT P6SM SCT100
     FM231300 34012G18KT P6SM SKC
     FM231800 30014G20KT P6SM SKC
     FM240000 32005KT P6SM SKC=

Latest METAR

229
SAUS70 KWBC 230700 RRF
MTRILM
METAR KILM 230653Z AUTO 25007KT 10SM CLR 18/14 A2971 RMK AO2 SLP061
T01830144


USA.gov is the U.S. government's official web portal to all federal, state and local government web resources and services.